Time;durP1;ratioP1;P1;durP2;ratioP2;P2;SDS_P1;SDS_P2;PMS_P1;PMS_P2;Temp;Humidity;BMP_temperature;BMP_pressure;BME280_temperature;BME280_humidity;BME280_pressure;Samples;Min_cycle;Max_cycle;Signal;HPM_P1;HPM_P2
2023/02/13 00:03:41;;;;;;;;;;;17.60;49.50;;;;;;10079752;28;814;-81
2023/02/13 00:08:36;;;;;;;;;;;17.60;49.50;;;;;;10079562;28;1981;-79
2023/02/13 00:13:32;;;;;;;;;;;17.60;49.50;;;;;;10079188;28;886;-79
2023/02/13 00:18:27;;;;;;;;;;;17.60;49.50;;;;;;10085564;28;965;-78
2023/02/13 00:23:22;;;;;;;;;;;17.60;49.50;;;;;;10085367;28;802;-80
2023/02/13 00:28:18;;;;;;;;;;;17.60;49.50;;;;;;10085949;29;1910;-79
2023/02/13 00:33:13;;;;;;;;;;;17.60;49.40;;;;;;10085346;28;880;-79
2023/02/13 00:38:08;;;;;;;;;;;17.60;49.40;;;;;;10085110;28;867;-79
2023/02/13 00:43:04;;;;;;;;;;;17.60;50.00;;;;;;10085442;28;1189;-79
2023/02/13 00:47:59;;;;;;;;;;;17.60;49.30;;;;;;10084605;28;1978;-79
2023/02/13 00:52:54;;;;;;;;;;;17.60;49.40;;;;;;10084408;28;747;-79
2023/02/13 00:57:50;;;;;;;;;;;17.60;49.30;;;;;;10085570;28;924;-79
2023/02/13 01:02:46;;;;;;;;;;;17.60;49.30;;;;;;10084488;28;893;-79
2023/02/13 01:07:42;;;;;;;;;;;17.60;49.30;;;;;;10085178;28;1902;-79
2023/02/13 01:12:37;;;;;;;;;;;17.60;49.30;;;;;;10084137;28;866;-79
2023/02/13 01:17:32;;;;;;;;;;;17.60;49.30;;;;;;10083765;29;1243;-79
2023/02/13 01:22:28;;;;;;;;;;;17.60;49.30;;;;;;10084038;28;860;-79
2023/02/13 01:27:23;;;;;;;;;;;17.60;49.30;;;;;;10083165;28;1910;-79
2023/02/13 01:32:18;;;;;;;;;;;17.60;49.20;;;;;;10083176;28;879;-79
2023/02/13 01:37:14;;;;;;;;;;;17.60;49.20;;;;;;10083882;28;853;-78
2023/02/13 01:42:09;;;;;;;;;;;17.60;49.20;;;;;;10083165;28;1357;-78
2023/02/13 01:47:04;;;;;;;;;;;17.60;49.20;;;;;;10082440;28;1968;-79
2023/02/13 01:52:00;;;;;;;;;;;17.60;49.20;;;;;;10082912;28;865;-79
2023/02/13 01:56:55;;;;;;;;;;;17.60;49.20;;;;;;10082797;28;854;-79
2023/02/13 02:01:50;;;;;;;;;;;17.60;49.20;;;;;;10083443;28;798;-79
2023/02/13 02:06:48;;;;;;;;;;;17.60;49.10;;;;;;10082350;28;1903;-79
2023/02/13 02:11:43;;;;;;;;;;;17.60;49.20;;;;;;10082934;28;869;-79
2023/02/13 02:16:39;;;;;;;;;;;17.60;49.10;;;;;;10081583;28;826;-79
2023/02/13 02:21:34;;;;;;;;;;;17.60;49.20;;;;;;10082627;28;963;-79
2023/02/13 02:26:29;;;;;;;;;;;17.60;49.20;;;;;;10081750;28;1953;-79
2023/02/13 02:31:25;;;;;;;;;;;17.60;49.10;;;;;;10081702;28;759;-79
2023/02/13 02:36:20;;;;;;;;;;;17.60;49.10;;;;;;10081631;28;770;-79
2023/02/13 02:41:40;;;;;;;;;;;17.60;49.00;;;;;;10081994;28;1418;-79
2023/02/13 02:46:31;;;;;;;;;;;17.60;49.00;;;;;;10080680;28;1981;-79
2023/02/13 02:51:26;;;;;;;;;;;17.60;49.10;;;;;;10081171;28;870;-79
2023/02/13 02:56:22;;;;;;;;;;;17.60;49.10;;;;;;10081013;28;865;-79
2023/02/13 03:06:31;;;;;;;;;;;17.60;49.10;;;;;;10080083;29;1992;-79
2023/02/13 03:27:08;;;;;;;;;;;17.60;49.00;;;;;;10079484;29;1895;-79
2023/02/13 03:32:03;;;;;;;;;;;17.60;49.00;;;;;;10080042;28;897;-79
2023/02/13 03:42:13;;;;;;;;;;;17.60;49.10;;;;;;10080437;29;1161;-79
2023/02/13 03:47:08;;;;;;;;;;;17.60;49.00;;;;;;10079538;28;1894;-79
2023/02/13 03:52:04;;;;;;;;;;;17.60;48.90;;;;;;10091449;28;864;-79
2023/02/13 04:02:13;;;;;;;;;;;17.60;49.00;;;;;;10092387;29;609;-78
2023/02/13 04:07:08;;;;;;;;;;;17.60;48.90;;;;;;10093065;28;1942;-79
2023/02/13 04:12:04;;;;;;;;;;;17.60;48.90;;;;;;10092593;28;880;-78
2023/02/13 04:16:59;;;;;;;;;;;17.60;48.90;;;;;;10092726;28;874;-78
2023/02/13 04:21:55;;;;;;;;;;;17.60;48.90;;;;;;10091795;28;775;-79
2023/02/13 04:26:50;;;;;;;;;;;17.60;48.90;;;;;;10091522;28;1951;-79
2023/02/13 04:31:45;;;;;;;;;;;17.60;48.90;;;;;;10091507;28;803;-79
2023/02/13 04:36:41;;;;;;;;;;;17.60;48.90;;;;;;10091999;28;861;-79
2023/02/13 04:41:36;;;;;;;;;;;17.60;48.80;;;;;;10090842;28;1386;-79
2023/02/13 04:46:31;;;;;;;;;;;17.60;48.80;;;;;;10091643;28;1910;-79
2023/02/13 04:51:27;;;;;;;;;;;17.50;48.80;;;;;;10091295;28;866;-79
2023/02/13 04:56:22;;;;;;;;;;;17.60;48.80;;;;;;10091596;28;817;-79
2023/02/13 05:01:18;;;;;;;;;;;17.60;48.80;;;;;;10087174;28;762;-78
2023/02/13 05:06:13;;;;;;;;;;;17.60;48.80;;;;;;10084829;28;1973;-78
2023/02/13 05:11:09;;;;;;;;;;;17.60;48.80;;;;;;10084738;28;882;-78
2023/02/13 05:16:04;;;;;;;;;;;17.60;48.80;;;;;;10084083;28;759;-78
2023/02/13 05:26:14;;;;;;;;;;;17.60;48.80;;;;;;10083337;29;1969;-78
2023/02/13 05:31:09;;;;;;;;;;;17.60;48.70;;;;;;10083813;28;784;-78
2023/02/13 05:36:04;;;;;;;;;;;17.60;48.70;;;;;;10083453;28;762;-78
2023/02/13 05:41:00;;;;;;;;;;;17.60;48.60;;;;;;10083159;28;1410;-78
2023/02/13 05:45:55;;;;;;;;;;;17.60;48.60;;;;;;10082487;28;1907;-78
2023/02/13 05:50:50;;;;;;;;;;;17.60;48.60;;;;;;10083654;28;932;-78
2023/02/13 05:55:46;;;;;;;;;;;17.60;48.60;;;;;;10082285;28;909;-78
2023/02/13 06:00:43;;;;;;;;;;;17.70;48.70;;;;;;10082723;28;881;-78
2023/02/13 06:05:39;;;;;;;;;;;17.70;48.60;;;;;;10082398;28;1898;-78
2023/02/13 06:10:34;;;;;;;;;;;17.70;48.60;;;;;;10082483;28;956;-78
2023/02/13 06:15:32;;;;;;;;;;;17.70;48.50;;;;;;10081021;28;802;-78
2023/02/13 06:20:27;;;;;;;;;;;17.70;48.50;;;;;;10081394;28;1038;-78
2023/02/13 06:25:22;;;;;;;;;;;17.70;48.60;;;;;;10081977;28;798;-81
2023/02/13 06:30:18;;;;;;;;;;;17.70;48.50;;;;;;10082379;28;1902;-80
2023/02/13 06:35:13;;;;;;;;;;;17.70;48.40;;;;;;10081850;28;763;-80
2023/02/13 06:40:08;;;;;;;;;;;17.70;48.50;;;;;;10082112;28;873;-79
2023/02/13 06:45:04;;;;;;;;;;;17.70;48.50;;;;;;10081195;28;1464;-78
2023/02/13 06:49:59;;;;;;;;;;;17.70;48.50;;;;;;10081230;28;1985;-79
2023/02/13 06:54:54;;;;;;;;;;;17.70;48.40;;;;;;10081080;28;897;-83
2023/02/13 06:59:50;;;;;;;;;;;17.70;48.50;;;;;;10081468;28;834;-80
2023/02/13 07:04:45;;;;;;;;;;;17.70;48.50;;;;;;10080195;28;856;-80
2023/02/13 07:09:40;;;;;;;;;;;17.70;48.40;;;;;;10081372;28;1911;-77
2023/02/13 07:14:36;;;;;;;;;;;17.70;48.40;;;;;;10079918;28;756;-78
2023/02/13 07:19:31;;;;;;;;;;;17.70;48.50;;;;;;10080304;28;870;-78
2023/02/13 07:24:27;;;;;;;;;;;17.60;48.50;;;;;;10080264;28;872;-81
2023/02/13 07:29:22;;;;;;;;;;;17.60;48.60;;;;;;10080566;28;1906;-78
2023/02/13 07:34:17;;;;;;;;;;;17.60;48.50;;;;;;10079754;28;890;-78
2023/02/13 07:39:13;;;;;;;;;;;17.60;48.50;;;;;;10080292;28;846;-79
2023/02/13 07:44:08;;;;;;;;;;;17.70;48.50;;;;;;10079488;28;1272;-78
2023/02/13 07:49:04;;;;;;;;;;;17.70;48.50;;;;;;10080068;28;1918;-79
2023/02/13 07:53:59;;;;;;;;;;;17.70;48.40;;;;;;10080188;28;794;-79
2023/02/13 07:58:54;;;;;;;;;;;17.70;48.50;;;;;;10080252;28;790;-81
2023/02/13 08:03:50;;;;;;;;;;;17.70;48.50;;;;;;10079225;28;787;-79
2023/02/13 08:08:45;;;;;;;;;;;17.70;48.50;;;;;;10079267;28;1906;-75
2023/02/13 08:13:40;;;;;;;;;;;17.70;48.50;;;;;;10078485;28;866;-79
2023/02/13 08:18:36;;;;;;;;;;;17.70;48.60;;;;;;10078223;28;1056;-81
2023/02/13 08:23:31;;;;;;;;;;;17.70;48.50;;;;;;10078444;28;902;-80
2023/02/13 08:28:27;;;;;;;;;;;17.70;48.60;;;;;;10078571;28;1907;-80
2023/02/13 08:33:22;;;;;;;;;;;17.70;48.60;;;;;;10078503;28;785;-81
2023/02/13 08:38:17;;;;;;;;;;;17.70;48.60;;;;;;10082912;28;877;-74
2023/02/13 08:43:13;;;;;;;;;;;17.70;48.70;;;;;;10084852;28;1279;-82
2023/02/13 08:48:08;;;;;;;;;;;17.80;48.90;;;;;;10084574;28;1907;-81
2023/02/13 08:53:03;;;;;;;;;;;17.70;48.80;;;;;;10085089;28;1571;-82
2023/02/13 08:57:59;;;;;;;;;;;17.70;48.80;;;;;;10083914;28;991;-81
2023/02/13 09:02:55;;;;;;;;;;;17.80;49.00;;;;;;10084411;28;836;-82
2023/02/13 09:07:50;;;;;;;;;;;17.80;49.00;;;;;;10084827;28;1906;-82
2023/02/13 09:12:45;;;;;;;;;;;17.80;49.00;;;;;;10084113;28;883;-75
2023/02/13 09:17:41;;;;;;;;;;;17.70;49.00;;;;;;10084541;28;857;-74
2023/02/13 09:22:36;;;;;;;;;;;17.80;49.10;;;;;;10084665;28;855;-84
2023/02/13 09:27:32;;;;;;;;;;;17.80;49.10;;;;;;10083471;28;1960;-75
2023/02/13 09:32:27;;;;;;;;;;;17.80;49.20;;;;;;10083461;28;937;-84
2023/02/13 09:37:23;;;;;;;;;;;17.80;49.20;;;;;;10083277;28;770;-81
2023/02/13 09:42:18;;;;;;;;;;;17.70;49.10;;;;;;10082184;28;1189;-80
2023/02/13 09:47:13;;;;;;;;;;;17.70;49.20;;;;;;10082689;28;1919;-80
2023/02/13 09:52:09;;;;;;;;;;;17.70;49.30;;;;;;10082922;28;872;-83
2023/02/13 09:57:06;;;;;;;;;;;17.70;49.40;;;;;;10083000;28;1027;-85
2023/02/13 10:02:01;;;;;;;;;;;17.70;49.30;;;;;;10083152;28;770;-84
2023/02/13 10:06:57;;;;;;;;;;;17.70;49.40;;;;;;10082085;28;1910;-83
2023/02/13 10:11:52;;;;;;;;;;;17.70;49.40;;;;;;10081799;28;1234;-84
2023/02/13 10:16:47;;;;;;;;;;;17.70;49.40;;;;;;10081486;28;895;-82
2023/02/13 10:21:43;;;;;;;;;;;17.70;49.40;;;;;;10082107;28;849;-81
2023/02/13 10:26:41;;;;;;;;;;;17.70;49.50;;;;;;10081779;28;1911;-79
2023/02/13 10:31:36;;;;;;;;;;;17.70;49.40;;;;;;10081832;28;767;-80
2023/02/13 10:36:32;;;;;;;;;;;17.70;49.40;;;;;;10081056;28;920;-83
2023/02/13 10:41:27;;;;;;;;;;;17.80;50.10;;;;;;10082143;28;1244;-81
2023/02/13 10:46:22;;;;;;;;;;;17.80;49.80;;;;;;10080574;28;1968;-81
2023/02/13 10:51:18;;;;;;;;;;;17.70;49.70;;;;;;10080753;28;869;-81
2023/02/13 10:56:16;;;;;;;;;;;17.70;49.60;;;;;;10081695;28;798;-83
2023/02/13 11:01:11;;;;;;;;;;;17.70;49.50;;;;;;10080421;28;834;-82
2023/02/13 11:06:07;;;;;;;;;;;17.70;49.50;;;;;;10080694;28;1902;-79
2023/02/13 11:11:02;;;;;;;;;;;17.80;49.70;;;;;;10080607;28;868;-84
2023/02/13 11:15:57;;;;;;;;;;;17.90;50.00;;;;;;10080643;28;886;-83
2023/02/13 11:20:53;;;;;;;;;;;17.90;49.70;;;;;;10081106;28;817;-83
2023/02/13 11:25:48;;;;;;;;;;;17.90;49.70;;;;;;10079815;28;1907;-85
2023/02/13 11:30:43;;;;;;;;;;;17.80;49.70;;;;;;10079518;28;834;-85
2023/02/13 11:35:39;;;;;;;;;;;17.90;49.60;;;;;;10080644;28;798;-84
2023/02/13 11:40:34;;;;;;;;;;;17.90;49.50;;;;;;10079756;28;1145;-84
2023/02/13 11:45:30;;;;;;;;;;;17.90;49.40;;;;;;10079794;28;850;-83
2023/02/13 11:50:25;;;;;;;;;;;17.90;49.40;;;;;;10080143;28;1978;-84
2023/02/13 11:55:21;;;;;;;;;;;17.90;49.40;;;;;;10080201;28;925;-85
2023/02/13 12:00:16;;;;;;;;;;;17.90;49.30;;;;;;10080111;28;861;-85
2023/02/13 12:05:11;;;;;;;;;;;17.90;49.30;;;;;;10079926;28;873;-82
2023/02/13 12:10:07;;;;;;;;;;;17.90;49.30;;;;;;10081098;28;1969;-83
2023/02/13 12:15:02;;;;;;;;;;;17.90;49.40;;;;;;10085696;28;866;-85
2023/02/13 12:19:57;;;;;;;;;;;17.90;49.50;;;;;;10085845;28;754;-84
2023/02/13 12:24:53;;;;;;;;;;;17.90;49.30;;;;;;10085226;28;885;-75
2023/02/13 12:29:48;;;;;;;;;;;17.90;49.30;;;;;;10085485;28;1899;-85
2023/02/13 12:34:43;;;;;;;;;;;17.90;49.30;;;;;;10085449;28;957;-85
2023/02/13 12:39:39;;;;;;;;;;;18.00;49.90;;;;;;10085324;28;782;-84
2023/02/13 12:44:34;;;;;;;;;;;18.00;49.20;;;;;;10084441;28;1262;-81
2023/02/13 12:49:30;;;;;;;;;;;18.00;49.10;;;;;;10084761;28;1918;-83
2023/02/13 12:54:25;;;;;;;;;;;18.10;49.20;;;;;;10084467;28;881;-86
2023/02/13 12:59:20;;;;;;;;;;;18.10;49.20;;;;;;10084704;28;929;-85
2023/02/13 13:04:16;;;;;;;;;;;18.20;49.20;;;;;;10084421;28;964;-85
2023/02/13 13:09:11;;;;;;;;;;;18.20;49.10;;;;;;10084379;28;1956;-83
2023/02/13 13:14:06;;;;;;;;;;;18.20;49.10;;;;;;10084733;28;803;-88
2023/02/13 13:19:02;;;;;;;;;;;18.30;49.00;;;;;;10084537;28;774;-81
2023/02/13 13:23:59;;;;;;;;;;;18.40;48.90;;;;;;10083157;28;868;-81
2023/02/13 13:28:55;;;;;;;;;;;18.50;48.90;;;;;;10083682;28;1954;-81
2023/02/13 13:33:50;;;;;;;;;;;18.50;48.80;;;;;;10084143;28;806;-81
2023/02/13 13:38:50;;;;;;;;;;;18.50;48.80;;;;;;10083514;28;782;-81
2023/02/13 13:43:45;;;;;;;;;;;18.60;48.80;;;;;;10083082;28;1242;-80
2023/02/13 13:48:42;;;;;;;;;;;18.70;48.70;;;;;;10083116;28;1911;-81
2023/02/13 13:53:39;;;;;;;;;;;18.80;48.70;;;;;;10082998;28;806;-84
2023/02/13 13:58:35;;;;;;;;;;;18.90;48.60;;;;;;10082795;28;801;-71
2023/02/13 14:03:33;;;;;;;;;;;19.20;48.70;;;;;;10083353;28;937;-74
2023/02/13 14:08:28;;;;;;;;;;;19.10;49.10;;;;;;10082533;28;1902;-74
2023/02/13 14:13:24;;;;;;;;;;;19.20;49.40;;;;;;10076364;28;1027;-77
2023/02/13 14:18:19;;;;;;;;;;;19.10;49.30;;;;;;10080957;28;1107;-72
2023/02/13 14:23:14;;;;;;;;;;;19.10;49.30;;;;;;10082122;28;861;-73
2023/02/13 14:28:10;;;;;;;;;;;19.10;49.20;;;;;;10081843;28;1965;-73
2023/02/13 14:33:05;;;;;;;;;;;19.10;49.20;;;;;;10081262;28;778;-73
2023/02/13 14:38:01;;;;;;;;;;;19.10;49.20;;;;;;10082288;28;779;-72
2023/02/13 14:42:56;;;;;;;;;;;19.20;49.20;;;;;;10081987;28;1133;-73
2023/02/13 14:47:55;;;;;;;;;;;19.20;49.20;;;;;;10081316;28;1914;-75
2023/02/13 14:52:50;;;;;;;;;;;19.20;49.20;;;;;;10081183;28;901;-74
2023/02/13 14:57:46;;;;;;;;;;;19.30;49.10;;;;;;10081081;28;925;-74
2023/02/13 15:02:43;;;;;;;;;;;19.30;49.00;;;;;;10081142;28;842;-75
2023/02/13 15:07:41;;;;;;;;;;;19.30;48.90;;;;;;10080850;28;1961;-74
2023/02/13 15:12:36;;;;;;;;;;;19.40;48.80;;;;;;10080335;28;915;-74
2023/02/13 15:17:36;;;;;;;;;;;19.40;48.80;;;;;;10080508;28;893;-75
2023/02/13 15:22:32;;;;;;;;;;;19.40;48.70;;;;;;10081393;28;869;-74
2023/02/13 15:27:27;;;;;;;;;;;19.40;48.70;;;;;;10080676;28;1879;-74
2023/02/13 15:32:23;;;;;;;;;;;19.40;48.70;;;;;;10079410;28;1120;-73
2023/02/13 15:37:18;;;;;;;;;;;19.40;48.80;;;;;;10080687;28;814;-73
2023/02/13 15:42:13;;;;;;;;;;;19.40;48.80;;;;;;10079853;28;1294;-73
2023/02/13 15:47:09;;;;;;;;;;;19.40;48.80;;;;;;10078559;28;1911;-73
2023/02/13 15:52:04;;;;;;;;;;;19.30;49.00;;;;;;10079591;28;841;-73
2023/02/13 15:56:59;;;;;;;;;;;19.10;49.20;;;;;;10080091;28;858;-73
2023/02/13 16:01:55;;;;;;;;;;;19.00;49.20;;;;;;10079319;28;829;-74
2023/02/13 16:06:50;;;;;;;;;;;18.90;49.30;;;;;;10078481;28;1964;-74
2023/02/13 16:11:45;;;;;;;;;;;18.80;49.40;;;;;;10079184;28;931;-73
2023/02/13 16:16:41;;;;;;;;;;;18.80;49.40;;;;;;10079126;28;809;-75
2023/02/13 16:21:37;;;;;;;;;;;18.80;49.40;;;;;;10079536;28;854;-76
2023/02/13 16:26:33;;;;;;;;;;;18.70;49.30;;;;;;10079873;28;1971;-75
2023/02/13 16:31:28;;;;;;;;;;;18.70;49.20;;;;;;10078895;28;797;-76
2023/02/13 16:36:23;;;;;;;;;;;18.80;49.30;;;;;;10079160;28;916;-75
2023/02/13 16:41:20;;;;;;;;;;;18.80;49.20;;;;;;10077989;28;1246;-75
2023/02/13 16:46:19;;;;;;;;;;;18.80;49.10;;;;;;10078813;28;1978;-76
2023/02/13 16:51:14;;;;;;;;;;;18.70;49.10;;;;;;10079778;28;866;-75
2023/02/13 16:56:10;;;;;;;;;;;18.70;49.10;;;;;;10079537;28;904;-75
2023/02/13 17:01:05;;;;;;;;;;;18.70;49.10;;;;;;10085321;28;809;-75
2023/02/13 17:06:01;;;;;;;;;;;18.70;49.20;;;;;;10085073;28;1908;-75
2023/02/13 17:10:56;;;;;;;;;;;18.70;49.20;;;;;;10084368;28;1545;-73
2023/02/13 17:15:53;;;;;;;;;;;18.70;49.20;;;;;;10083678;28;1019;-78
2023/02/13 17:20:49;;;;;;;;;;;18.70;49.10;;;;;;10084098;28;926;-75
2023/02/13 17:25:48;;;;;;;;;;;18.70;49.10;;;;;;10083899;28;830;-77
2023/02/13 17:30:43;;;;;;;;;;;18.70;49.20;;;;;;10083689;28;1903;-80
2023/02/13 17:35:39;;;;;;;;;;;18.70;49.30;;;;;;10083699;28;763;-76
2023/02/13 17:40:34;;;;;;;;;;;18.90;49.60;;;;;;10084041;28;1090;-75
2023/02/13 17:45:29;;;;;;;;;;;18.90;49.60;;;;;;10082812;28;917;-75
2023/02/13 17:50:25;;;;;;;;;;;18.90;49.90;;;;;;10081993;29;1906;-75
2023/02/13 17:55:20;;;;;;;;;;;18.90;49.90;;;;;;10083643;28;841;-75
2023/02/13 18:00:15;;;;;;;;;;;18.90;49.80;;;;;;10082979;28;893;-75
2023/02/13 18:05:11;;;;;;;;;;;19.00;49.90;;;;;;10082724;28;870;-75
2023/02/13 18:10:06;;;;;;;;;;;18.90;49.70;;;;;;10082346;28;1898;-75
2023/02/13 18:15:03;;;;;;;;;;;18.90;49.70;;;;;;10083084;28;807;-75
2023/02/13 18:19:58;;;;;;;;;;;18.90;49.70;;;;;;10082255;28;847;-75
2023/02/13 18:24:53;;;;;;;;;;;18.90;49.70;;;;;;10081631;28;967;-75
2023/02/13 18:29:49;;;;;;;;;;;18.90;49.70;;;;;;10082000;28;1906;-75
2023/02/13 18:34:45;;;;;;;;;;;19.00;49.70;;;;;;10082455;28;847;-75
2023/02/13 18:39:40;;;;;;;;;;;19.00;49.60;;;;;;10082377;28;845;-75
2023/02/13 18:44:36;;;;;;;;;;;18.90;49.60;;;;;;10082104;28;1447;-75
2023/02/13 18:49:31;;;;;;;;;;;19.00;49.60;;;;;;10080880;28;1911;-75
2023/02/13 18:54:26;;;;;;;;;;;18.90;49.50;;;;;;10081327;28;789;-75
2023/02/13 18:59:22;;;;;;;;;;;18.90;49.60;;;;;;10081194;28;864;-76
2023/02/13 19:04:17;;;;;;;;;;;18.90;49.60;;;;;;10081557;28;840;-76
2023/02/13 19:09:13;;;;;;;;;;;19.00;49.60;;;;;;10081507;28;1899;-76
2023/02/13 19:14:08;;;;;;;;;;;18.90;49.50;;;;;;10081307;28;821;-76
2023/02/13 19:19:04;;;;;;;;;;;18.90;49.50;;;;;;10080039;28;860;-76
2023/02/13 19:23:59;;;;;;;;;;;18.90;49.40;;;;;;10079862;29;947;-76
2023/02/13 19:28:54;;;;;;;;;;;18.90;49.40;;;;;;10080801;28;2013;-77
2023/02/13 19:33:50;;;;;;;;;;;18.90;49.30;;;;;;10080200;28;829;-77
2023/02/13 19:38:45;;;;;;;;;;;18.90;49.20;;;;;;10080031;28;870;-75
2023/02/13 19:43:41;;;;;;;;;;;19.00;48.90;;;;;;10079764;28;1259;-77
2023/02/13 19:48:36;;;;;;;;;;;19.00;48.70;;;;;;10079660;28;1970;-76
2023/02/13 19:53:31;;;;;;;;;;;19.00;48.60;;;;;;10079725;28;790;-80
2023/02/13 19:58:27;;;;;;;;;;;19.10;48.70;;;;;;10080161;28;872;-76
2023/02/13 20:03:22;;;;;;;;;;;18.90;49.00;;;;;;10079454;28;907;-77
2023/02/13 20:08:17;;;;;;;;;;;18.70;49.20;;;;;;10079243;28;2017;-79
2023/02/13 20:13:13;;;;;;;;;;;18.70;49.30;;;;;;10078595;28;1022;-76
2023/02/13 20:18:08;;;;;;;;;;;18.70;49.40;;;;;;10079095;28;905;-76
2023/02/13 20:23:04;;;;;;;;;;;18.70;49.30;;;;;;10079824;28;853;-72
2023/02/13 20:27:59;;;;;;;;;;;18.70;49.30;;;;;;10078787;28;1903;-72
2023/02/13 20:32:54;;;;;;;;;;;18.80;49.30;;;;;;10081998;28;913;-72
2023/02/13 20:37:50;;;;;;;;;;;18.80;49.30;;;;;;10085444;28;790;-72
2023/02/13 20:42:45;;;;;;;;;;;18.70;49.30;;;;;;10086163;28;1204;-72
2023/02/13 20:47:41;;;;;;;;;;;18.70;49.30;;;;;;10085103;28;1964;-72
2023/02/13 20:52:37;;;;;;;;;;;18.70;49.30;;;;;;10085553;28;898;-72
2023/02/13 20:57:32;;;;;;;;;;;18.70;49.80;;;;;;10085560;28;878;-72
2023/02/13 21:02:27;;;;;;;;;;;18.70;49.20;;;;;;10085523;28;933;-72
2023/02/13 21:07:23;;;;;;;;;;;18.70;49.20;;;;;;10084945;28;1902;-72
2023/02/13 21:12:18;;;;;;;;;;;18.70;49.20;;;;;;10084009;28;955;-72
2023/02/13 21:17:13;;;;;;;;;;;18.70;49.20;;;;;;10084898;28;1092;-72
2023/02/13 21:22:12;;;;;;;;;;;18.70;49.20;;;;;;10084153;28;764;-72
2023/02/13 21:27:07;;;;;;;;;;;18.70;49.20;;;;;;10083902;28;1908;-72
2023/02/13 21:32:03;;;;;;;;;;;18.70;49.10;;;;;;10083857;28;801;-73
2023/02/13 21:36:58;;;;;;;;;;;18.70;49.10;;;;;;10083917;28;770;-72
2023/02/13 21:41:54;;;;;;;;;;;18.70;49.10;;;;;;10083803;28;1201;-72
2023/02/13 21:46:49;;;;;;;;;;;18.70;49.10;;;;;;10083367;28;1914;-72
2023/02/13 21:51:44;;;;;;;;;;;18.70;49.10;;;;;;10083300;28;944;-72
2023/02/13 21:56:40;;;;;;;;;;;18.70;49.10;;;;;;10083141;28;845;-72
2023/02/13 22:01:35;;;;;;;;;;;18.70;49.10;;;;;;10083571;28;880;-72
2023/02/13 22:06:30;;;;;;;;;;;18.60;49.10;;;;;;10082744;28;1906;-72
2023/02/13 22:11:26;;;;;;;;;;;18.70;49.10;;;;;;10082085;28;880;-72
2023/02/13 22:16:21;;;;;;;;;;;18.70;49.10;;;;;;10082505;28;971;-73
2023/02/13 22:21:17;;;;;;;;;;;18.60;49.00;;;;;;10082563;28;821;-73
2023/02/13 22:26:12;;;;;;;;;;;18.70;49.10;;;;;;10082941;28;1902;-73
2023/02/13 22:31:08;;;;;;;;;;;18.60;49.00;;;;;;10082024;28;989;-73
2023/02/13 22:36:03;;;;;;;;;;;18.70;49.00;;;;;;10081862;28;943;-73
2023/02/13 22:40:59;;;;;;;;;;;18.70;49.00;;;;;;10081326;28;1348;-73
2023/02/13 22:45:54;;;;;;;;;;;18.70;49.00;;;;;;10082196;29;845;-73
2023/02/13 22:50:49;;;;;;;;;;;18.60;49.00;;;;;;10081507;28;1914;-73
2023/02/13 22:55:45;;;;;;;;;;;18.60;49.00;;;;;;10081190;28;1063;-73
2023/02/13 23:00:40;;;;;;;;;;;18.60;48.90;;;;;;10080633;28;849;-73
2023/02/13 23:05:35;;;;;;;;;;;18.60;49.00;;;;;;10081019;28;791;-73
2023/02/13 23:10:32;;;;;;;;;;;18.50;48.90;;;;;;10080753;28;1903;-73
2023/02/13 23:15:27;;;;;;;;;;;18.60;48.90;;;;;;10080145;28;1031;-73
2023/02/13 23:20:23;;;;;;;;;;;18.60;48.90;;;;;;10080067;28;899;-73
2023/02/13 23:25:18;;;;;;;;;;;18.60;48.90;;;;;;10081460;28;931;-73
2023/02/13 23:30:13;;;;;;;;;;;18.60;48.90;;;;;;10080317;28;1895;-73
2023/02/13 23:35:09;;;;;;;;;;;18.60;48.90;;;;;;10081040;28;783;-73
2023/02/13 23:40:04;;;;;;;;;;;18.60;48.90;;;;;;10080715;28;812;-73
2023/02/13 23:45:00;;;;;;;;;;;18.60;48.90;;;;;;10080907;28;1359;-73
2023/02/13 23:49:55;;;;;;;;;;;18.60;48.90;;;;;;10079764;28;1975;-73
2023/02/13 23:54:50;;;;;;;;;;;18.60;49.00;;;;;;10079740;28;822;-73
2023/02/13 23:59:46;;;;;;;;;;;18.60;48.90;;;;;;10079003;28;936;-73
